This demonstration page uses our WeatherBlox Daily Observations layout. Learn more.

39.08367, -84.50855

Hourly Observations for January 22, 2019

Temp ( °F °C ) Dew Point ( °F °C ) Humidity (%) Winds ( mph kmh ) Pressure ( in mb ) Visibility ( mi km ) Precip ( " mm )
12:53 am 00:53 Mostly Cloudy 15 -9.4 2 -16.7 56 56 ENE 6 9 30.53 1034 10 16.09344 0 0
1:53 am 01:53 Cloudy 16 -8.9 3 -16.1 56 56 ENE 6 9 30.53 1034 10 16.09344 0 0
2:53 am 02:53 Clear 16 -8.9 3 -16.1 56 56 ENE 5 7 30.5 1033 10 16.09344 0 0
3:53 am 03:53 Clear 15 -9.4 3 -16.1 59 59 ENE 5 7 30.5 1033 10 16.09344 0 0
4:53 am 04:53 Clear 15 -9.4 2 -16.7 56 56 NE 3 6 30.5 1033 10 16.09344 0 0
5:53 am 05:53 Clear 14 -10 3 -16.1 61 61 NNE 3 6 30.48 1032 10 16.09344 0 0
6:53 am 06:53 Clear 15 -9.4 3 -16.1 59 59 Calm 30.5 1033 10 16.09344 0 0
7:53 am 07:53 Sunny 17 -8.3 4 -15.6 56 56 Calm 30.48 1032 10 16.09344 0 0
8:53 am 08:53 Sunny 18 -7.8 4 -15.6 54 54 VRB 5 7 30.48 1032 10 16.09344 0 0
9:53 am 09:53 Sunny 21 -6.1 5 -15 50 50 SE 6 9 30.45 1031 10 16.09344 0 0
10:53 am 10:53 Sunny 25 -3.9 8 -13.3 48 48 VRB 5 7 30.45 1031 10 16.09344 0 0
11:53 am 11:53 Sunny 30 -1.1 11 -11.7 45 45 S 5 7 30.42 1030 10 16.09344 0 0
12:53 pm 12:53 Sunny 35 1.7 14 -10 42 42 S 10 17 30.36 1028 10 16.09344 0 0
1:53 pm 13:53 Sunny 37 2.8 17 -8.3 44 44 S 12 19 30.33 1027 10 16.09344 0 0
2:53 pm 14:53 Sunny 37 2.8 18 -7.8 46 46 S 8 13 30.3 1026 10 16.09344 0 0
3:53 pm 15:53 Sunny 39 3.9 19 -7.2 45 45 S 8 13 30.24 1024 10 16.09344 0 0
4:53 pm 16:53 Sunny 40 4.4 21 -6.1 47 47 S 10 17 30.24 1024 10 16.09344 0 0
5:53 pm 17:53 Clear 40 4.4 22 -5.6 49 49 S 9 15 30.21 1023 10 16.09344 0 0
6:53 pm 18:53 Partly Cloudy 41 5 22 -5.6 47 47 S 10 17 30.21 1023 10 16.09344 0 0
7:53 pm 19:53 Clear 44 6.7 24 -4.4 45 45 S 15 24 30.18 1022 10 16.09344 0 0
8:53 pm 20:53 Cloudy 43 6.1 28 -2.2 56 56 S 10 17 30.18 1022 10 16.09344 0 0
9:53 pm 21:53 Cloudy 43 6.1 30 -1.1 60 60 S 12 19 30.15 1021 10 16.09344 0 0
10:53 pm 22:53 Mostly Cloudy 44 6.7 28 -2.2 53 53 S 14 22 30.12 1020 10 16.09344 0 0
11:53 pm 23:53 Cloudy 43 6.1 30 -1.1 60 60 S 12 19 30.06 1018 10 16.09344 0 0

Powered by AerisWeather